sensor_id;sensor_type;location;lat;lon;timestamp;P1;durP1;ratioP1;P2;durP2;ratioP2
43678;SDS011;29279;50.858;4.392;2022-11-20T00:01:42;58.63;;;31.80;;
43678;SDS011;29279;50.858;4.392;2022-11-20T00:04:08;56.13;;;33.08;;
43678;SDS011;29279;50.858;4.392;2022-11-20T00:06:38;56.20;;;32.13;;
43678;SDS011;29279;50.858;4.392;2022-11-20T00:09:03;63.45;;;33.38;;
43678;SDS011;29279;50.858;4.392;2022-11-20T00:11:30;65.68;;;34.20;;
43678;SDS011;29279;50.858;4.392;2022-11-20T00:13:57;59.85;;;32.67;;
43678;SDS011;29279;50.858;4.392;2022-11-20T00:16:26;56.90;;;31.60;;
43678;SDS011;29279;50.858;4.392;2022-11-20T00:18:53;55.20;;;32.45;;
43678;SDS011;29279;50.858;4.392;2022-11-20T00:23:49;64.15;;;34.22;;
43678;SDS011;29279;50.858;4.392;2022-11-20T00:26:16;60.40;;;32.88;;
43678;SDS011;29279;50.858;4.392;2022-11-20T00:28:48;60.17;;;34.72;;
43678;SDS011;29279;50.858;4.392;2022-11-20T00:31:15;67.82;;;35.40;;
43678;SDS011;29279;50.858;4.392;2022-11-20T00:33:42;64.75;;;35.80;;
43678;SDS011;29279;50.858;4.392;2022-11-20T00:36:09;71.38;;;34.72;;
43678;SDS011;29279;50.858;4.392;2022-11-20T00:38:37;63.50;;;34.60;;
43678;SDS011;29279;50.858;4.392;2022-11-20T00:41:04;67.35;;;35.47;;
43678;SDS011;29279;50.858;4.392;2022-11-20T00:43:32;66.32;;;37.05;;
43678;SDS011;29279;50.858;4.392;2022-11-20T00:48:24;72.75;;;37.55;;
43678;SDS011;29279;50.858;4.392;2022-11-20T00:50:50;65.03;;;35.78;;
43678;SDS011;29279;50.858;4.392;2022-11-20T00:53:16;66.80;;;35.45;;
43678;SDS011;29279;50.858;4.392;2022-11-20T00:55:42;61.90;;;35.80;;
43678;SDS011;29279;50.858;4.392;2022-11-20T00:58:07;69.85;;;35.55;;
43678;SDS011;29279;50.858;4.392;2022-11-20T01:00:33;65.78;;;34.30;;
43678;SDS011;29279;50.858;4.392;2022-11-20T01:02:59;71.63;;;36.53;;
43678;SDS011;29279;50.858;4.392;2022-11-20T01:05:25;76.50;;;39.75;;
43678;SDS011;29279;50.858;4.392;2022-11-20T01:07:50;68.65;;;36.72;;
43678;SDS011;29279;50.858;4.392;2022-11-20T01:10:16;76.60;;;40.65;;
43678;SDS011;29279;50.858;4.392;2022-11-20T01:12:42;76.68;;;41.33;;
43678;SDS011;29279;50.858;4.392;2022-11-20T01:15:08;83.72;;;41.45;;
43678;SDS011;29279;50.858;4.392;2022-11-20T01:17:34;69.05;;;36.58;;
43678;SDS011;29279;50.858;4.392;2022-11-20T01:19:59;78.43;;;37.97;;
43678;SDS011;29279;50.858;4.392;2022-11-20T01:22:25;75.68;;;37.80;;
43678;SDS011;29279;50.858;4.392;2022-11-20T01:24:50;69.85;;;37.13;;
43678;SDS011;29279;50.858;4.392;2022-11-20T01:27:16;71.38;;;38.50;;
43678;SDS011;29279;50.858;4.392;2022-11-20T01:29:42;74.63;;;38.63;;
43678;SDS011;29279;50.858;4.392;2022-11-20T01:32:07;65.90;;;36.60;;
43678;SDS011;29279;50.858;4.392;2022-11-20T01:34:34;70.70;;;38.80;;
43678;SDS011;29279;50.858;4.392;2022-11-20T01:36:59;71.63;;;38.15;;
43678;SDS011;29279;50.858;4.392;2022-11-20T01:39:25;68.47;;;36.55;;
43678;SDS011;29279;50.858;4.392;2022-11-20T01:41:52;77.45;;;37.53;;
43678;SDS011;29279;50.858;4.392;2022-11-20T01:47:36;70.80;;;38.47;;
43678;SDS011;29279;50.858;4.392;2022-11-20T01:50:22;68.45;;;36.80;;
43678;SDS011;29279;50.858;4.392;2022-11-20T01:52:54;73.65;;;37.50;;
43678;SDS011;29279;50.858;4.392;2022-11-20T01:55:31;67.43;;;35.65;;
43678;SDS011;29279;50.858;4.392;2022-11-20T01:58:02;69.38;;;38.67;;
43678;SDS011;29279;50.858;4.392;2022-11-20T02:00:29;82.93;;;41.30;;
43678;SDS011;29279;50.858;4.392;2022-11-20T02:03:03;77.82;;;40.83;;
43678;SDS011;29279;50.858;4.392;2022-11-20T02:05:36;79.50;;;41.22;;
43678;SDS011;29279;50.858;4.392;2022-11-20T02:08:19;71.18;;;39.10;;
43678;SDS011;29279;50.858;4.392;2022-11-20T02:10:46;84.15;;;41.63;;
43678;SDS011;29279;50.858;4.392;2022-11-20T02:13:12;81.55;;;41.80;;
43678;SDS011;29279;50.858;4.392;2022-11-20T02:15:57;74.85;;;41.38;;
43678;SDS011;29279;50.858;4.392;2022-11-20T02:18:22;92.72;;;44.42;;
43678;SDS011;29279;50.858;4.392;2022-11-20T02:20:51;84.60;;;43.05;;
43678;SDS011;29279;50.858;4.392;2022-11-20T02:23:23;87.82;;;42.92;;
43678;SDS011;29279;50.858;4.392;2022-11-20T02:26:18;93.95;;;44.35;;
43678;SDS011;29279;50.858;4.392;2022-11-20T02:28:47;87.45;;;45.35;;
43678;SDS011;29279;50.858;4.392;2022-11-20T02:31:13;80.00;;;42.30;;
43678;SDS011;29279;50.858;4.392;2022-11-20T02:33:39;83.05;;;44.50;;
43678;SDS011;29279;50.858;4.392;2022-11-20T02:36:05;87.57;;;43.10;;
43678;SDS011;29279;50.858;4.392;2022-11-20T02:38:33;73.25;;;39.25;;
43678;SDS011;29279;50.858;4.392;2022-11-20T02:40:59;78.75;;;39.05;;
43678;SDS011;29279;50.858;4.392;2022-11-20T02:43:24;68.32;;;36.47;;
43678;SDS011;29279;50.858;4.392;2022-11-20T02:45:50;62.72;;;33.47;;
43678;SDS011;29279;50.858;4.392;2022-11-20T02:48:15;55.00;;;31.10;;
43678;SDS011;29279;50.858;4.392;2022-11-20T02:50:41;56.60;;;32.83;;
43678;SDS011;29279;50.858;4.392;2022-11-20T02:53:07;58.65;;;32.33;;
43678;SDS011;29279;50.858;4.392;2022-11-20T02:55:33;58.15;;;32.38;;
43678;SDS011;29279;50.858;4.392;2022-11-20T02:57:59;59.95;;;34.38;;
43678;SDS011;29279;50.858;4.392;2022-11-20T03:00:24;54.33;;;28.20;;
43678;SDS011;29279;50.858;4.392;2022-11-20T03:02:50;54.72;;;30.00;;
43678;SDS011;29279;50.858;4.392;2022-11-20T03:05:16;51.10;;;30.02;;
43678;SDS011;29279;50.858;4.392;2022-11-20T03:07:43;56.05;;;29.45;;
43678;SDS011;29279;50.858;4.392;2022-11-20T03:10:08;57.88;;;30.85;;
43678;SDS011;29279;50.858;4.392;2022-11-20T03:12:34;57.42;;;29.38;;
43678;SDS011;29279;50.858;4.392;2022-11-20T03:15:00;48.50;;;26.92;;
43678;SDS011;29279;50.858;4.392;2022-11-20T03:17:25;52.15;;;26.83;;
43678;SDS011;29279;50.858;4.392;2022-11-20T03:19:51;57.13;;;26.40;;
43678;SDS011;29279;50.858;4.392;2022-11-20T03:22:17;49.45;;;27.25;;
43678;SDS011;29279;50.858;4.392;2022-11-20T03:24:42;46.67;;;25.27;;
43678;SDS011;29279;50.858;4.392;2022-11-20T03:27:08;44.97;;;24.38;;
43678;SDS011;29279;50.858;4.392;2022-11-20T03:29:35;45.55;;;23.73;;
43678;SDS011;29279;50.858;4.392;2022-11-20T03:32:00;45.95;;;25.23;;
43678;SDS011;29279;50.858;4.392;2022-11-20T03:34:26;43.70;;;24.27;;
43678;SDS011;29279;50.858;4.392;2022-11-20T03:36:51;50.38;;;25.92;;
43678;SDS011;29279;50.858;4.392;2022-11-20T03:39:17;51.53;;;27.08;;
43678;SDS011;29279;50.858;4.392;2022-11-20T03:41:43;52.30;;;27.10;;
43678;SDS011;29279;50.858;4.392;2022-11-20T03:44:09;60.65;;;27.25;;
43678;SDS011;29279;50.858;4.392;2022-11-20T03:46:36;54.03;;;27.38;;
43678;SDS011;29279;50.858;4.392;2022-11-20T03:49:02;54.88;;;27.08;;
43678;SDS011;29279;50.858;4.392;2022-11-20T03:51:30;59.00;;;28.33;;
43678;SDS011;29279;50.858;4.392;2022-11-20T03:53:58;55.17;;;28.80;;
43678;SDS011;29279;50.858;4.392;2022-11-20T03:56:25;59.53;;;30.10;;
43678;SDS011;29279;50.858;4.392;2022-11-20T03:58:56;57.88;;;29.17;;
43678;SDS011;29279;50.858;4.392;2022-11-20T04:01:24;57.95;;;30.27;;
43678;SDS011;29279;50.858;4.392;2022-11-20T04:03:55;59.25;;;29.75;;
43678;SDS011;29279;50.858;4.392;2022-11-20T04:06:23;60.65;;;29.80;;
43678;SDS011;29279;50.858;4.392;2022-11-20T04:08:56;67.38;;;32.60;;
43678;SDS011;29279;50.858;4.392;2022-11-20T04:11:23;68.00;;;32.22;;
43678;SDS011;29279;50.858;4.392;2022-11-20T04:14:00;61.85;;;31.10;;
43678;SDS011;29279;50.858;4.392;2022-11-20T04:16:31;59.95;;;29.98;;
43678;SDS011;29279;50.858;4.392;2022-11-20T04:18:59;63.85;;;31.52;;
43678;SDS011;29279;50.858;4.392;2022-11-20T04:21:26;64.47;;;31.33;;
43678;SDS011;29279;50.858;4.392;2022-11-20T04:23:52;67.22;;;32.88;;
43678;SDS011;29279;50.858;4.392;2022-11-20T04:26:18;73.75;;;36.13;;
43678;SDS011;29279;50.858;4.392;2022-11-20T04:28:45;66.32;;;34.13;;
43678;SDS011;29279;50.858;4.392;2022-11-20T04:31:12;82.55;;;35.85;;
43678;SDS011;29279;50.858;4.392;2022-11-20T04:33:42;82.03;;;37.83;;
43678;SDS011;29279;50.858;4.392;2022-11-20T04:36:13;81.70;;;36.67;;
43678;SDS011;29279;50.858;4.392;2022-11-20T04:38:43;82.50;;;36.47;;
43678;SDS011;29279;50.858;4.392;2022-11-20T04:41:13;76.60;;;36.28;;
43678;SDS011;29279;50.858;4.392;2022-11-20T04:43:41;87.53;;;37.90;;
43678;SDS011;29279;50.858;4.392;2022-11-20T04:46:10;82.85;;;34.97;;
43678;SDS011;29279;50.858;4.392;2022-11-20T04:48:36;90.82;;;37.00;;
43678;SDS011;29279;50.858;4.392;2022-11-20T04:51:05;84.60;;;37.35;;
43678;SDS011;29279;50.858;4.392;2022-11-20T04:53:31;80.63;;;36.40;;
43678;SDS011;29279;50.858;4.392;2022-11-20T04:56:00;78.15;;;35.63;;
43678;SDS011;29279;50.858;4.392;2022-11-20T04:58:26;77.25;;;35.90;;
43678;SDS011;29279;50.858;4.392;2022-11-20T05:00:52;84.57;;;38.88;;
43678;SDS011;29279;50.858;4.392;2022-11-20T05:03:18;79.65;;;35.80;;
43678;SDS011;29279;50.858;4.392;2022-11-20T05:05:44;90.82;;;37.75;;
43678;SDS011;29279;50.858;4.392;2022-11-20T05:08:10;83.57;;;36.33;;
43678;SDS011;29279;50.858;4.392;2022-11-20T05:10:35;85.93;;;36.53;;
43678;SDS011;29279;50.858;4.392;2022-11-20T05:13:01;93.68;;;38.30;;
43678;SDS011;29279;50.858;4.392;2022-11-20T05:15:26;89.70;;;38.42;;
43678;SDS011;29279;50.858;4.392;2022-11-20T05:17:52;84.32;;;36.83;;
43678;SDS011;29279;50.858;4.392;2022-11-20T05:20:18;92.40;;;37.00;;
43678;SDS011;29279;50.858;4.392;2022-11-20T05:22:47;87.82;;;37.40;;
43678;SDS011;29279;50.858;4.392;2022-11-20T05:25:13;83.45;;;37.78;;
43678;SDS011;29279;50.858;4.392;2022-11-20T05:27:39;87.47;;;38.13;;
43678;SDS011;29279;50.858;4.392;2022-11-20T05:30:04;86.20;;;38.38;;
43678;SDS011;29279;50.858;4.392;2022-11-20T05:32:31;93.22;;;39.03;;
43678;SDS011;29279;50.858;4.392;2022-11-20T05:34:57;76.70;;;36.03;;
43678;SDS011;29279;50.858;4.392;2022-11-20T05:37:22;81.07;;;36.72;;
43678;SDS011;29279;50.858;4.392;2022-11-20T05:39:48;85.53;;;37.35;;
43678;SDS011;29279;50.858;4.392;2022-11-20T05:42:13;85.90;;;37.80;;
43678;SDS011;29279;50.858;4.392;2022-11-20T05:44:58;86.40;;;38.15;;
43678;SDS011;29279;50.858;4.392;2022-11-20T05:47:24;94.82;;;39.28;;
43678;SDS011;29279;50.858;4.392;2022-11-20T05:49:50;93.53;;;39.38;;
43678;SDS011;29279;50.858;4.392;2022-11-20T05:52:16;90.95;;;39.33;;
43678;SDS011;29279;50.858;4.392;2022-11-20T05:54:42;98.90;;;40.00;;
43678;SDS011;29279;50.858;4.392;2022-11-20T05:57:07;106.07;;;41.13;;
43678;SDS011;29279;50.858;4.392;2022-11-20T05:59:33;100.90;;;41.10;;
43678;SDS011;29279;50.858;4.392;2022-11-20T06:01:59;100.25;;;39.40;;
43678;SDS011;29279;50.858;4.392;2022-11-20T06:04:24;95.38;;;39.35;;
43678;SDS011;29279;50.858;4.392;2022-11-20T06:06:50;100.75;;;40.58;;
43678;SDS011;29279;50.858;4.392;2022-11-20T06:09:16;93.00;;;37.50;;
43678;SDS011;29279;50.858;4.392;2022-11-20T06:11:41;91.40;;;37.30;;
43678;SDS011;29279;50.858;4.392;2022-11-20T06:14:07;102.63;;;40.30;;
43678;SDS011;29279;50.858;4.392;2022-11-20T06:16:32;110.95;;;39.33;;
43678;SDS011;29279;50.858;4.392;2022-11-20T06:18:58;109.32;;;38.88;;
43678;SDS011;29279;50.858;4.392;2022-11-20T06:21:24;110.93;;;39.30;;
43678;SDS011;29279;50.858;4.392;2022-11-20T06:23:50;118.68;;;41.70;;
43678;SDS011;29279;50.858;4.392;2022-11-20T06:26:21;108.45;;;37.30;;
43678;SDS011;29279;50.858;4.392;2022-11-20T06:28:48;115.13;;;41.83;;
43678;SDS011;29279;50.858;4.392;2022-11-20T06:31:14;106.97;;;40.67;;
43678;SDS011;29279;50.858;4.392;2022-11-20T06:33:42;111.07;;;39.33;;
43678;SDS011;29279;50.858;4.392;2022-11-20T06:36:09;110.00;;;39.50;;
43678;SDS011;29279;50.858;4.392;2022-11-20T06:38:36;123.10;;;41.42;;
43678;SDS011;29279;50.858;4.392;2022-11-20T06:41:02;109.10;;;40.45;;
43678;SDS011;29279;50.858;4.392;2022-11-20T06:43:29;118.82;;;41.67;;
43678;SDS011;29279;50.858;4.392;2022-11-20T06:45:55;111.85;;;40.25;;
43678;SDS011;29279;50.858;4.392;2022-11-20T06:48:22;125.18;;;40.80;;
43678;SDS011;29279;50.858;4.392;2022-11-20T06:50:48;111.45;;;40.65;;
43678;SDS011;29279;50.858;4.392;2022-11-20T06:53:14;126.28;;;42.78;;
43678;SDS011;29279;50.858;4.392;2022-11-20T06:55:43;122.22;;;41.20;;
43678;SDS011;29279;50.858;4.392;2022-11-20T06:58:10;116.25;;;40.63;;
43678;SDS011;29279;50.858;4.392;2022-11-20T07:00:36;116.65;;;41.72;;
43678;SDS011;29279;50.858;4.392;2022-11-20T07:03:03;115.65;;;40.58;;
43678;SDS011;29279;50.858;4.392;2022-11-20T07:05:29;110.65;;;41.33;;
43678;SDS011;29279;50.858;4.392;2022-11-20T07:07:55;107.32;;;40.33;;
43678;SDS011;29279;50.858;4.392;2022-11-20T07:10:21;125.20;;;42.40;;
43678;SDS011;29279;50.858;4.392;2022-11-20T07:12:51;102.05;;;39.35;;
43678;SDS011;29279;50.858;4.392;2022-11-20T07:15:18;113.85;;;40.42;;
43678;SDS011;29279;50.858;4.392;2022-11-20T07:17:45;103.50;;;39.05;;
43678;SDS011;29279;50.858;4.392;2022-11-20T07:20:11;117.20;;;41.50;;
43678;SDS011;29279;50.858;4.392;2022-11-20T07:22:37;110.50;;;39.38;;
43678;SDS011;29279;50.858;4.392;2022-11-20T07:25:03;101.00;;;39.08;;
43678;SDS011;29279;50.858;4.392;2022-11-20T07:27:30;104.43;;;40.08;;
43678;SDS011;29279;50.858;4.392;2022-11-20T07:29:55;97.40;;;39.58;;
43678;SDS011;29279;50.858;4.392;2022-11-20T07:32:21;106.00;;;36.97;;
43678;SDS011;29279;50.858;4.392;2022-11-20T07:34:47;103.15;;;38.88;;
43678;SDS011;29279;50.858;4.392;2022-11-20T07:37:14;105.07;;;39.38;;
43678;SDS011;29279;50.858;4.392;2022-11-20T07:39:39;109.38;;;38.75;;
43678;SDS011;29279;50.858;4.392;2022-11-20T07:42:05;103.50;;;38.67;;
43678;SDS011;29279;50.858;4.392;2022-11-20T07:44:32;115.65;;;39.60;;
43678;SDS011;29279;50.858;4.392;2022-11-20T07:46:57;108.03;;;39.30;;
43678;SDS011;29279;50.858;4.392;2022-11-20T07:49:23;129.35;;;41.83;;
43678;SDS011;29279;50.858;4.392;2022-11-20T07:51:52;112.57;;;38.88;;
43678;SDS011;29279;50.858;4.392;2022-11-20T07:54:18;136.48;;;41.05;;
43678;SDS011;29279;50.858;4.392;2022-11-20T07:56:50;146.68;;;41.88;;
43678;SDS011;29279;50.858;4.392;2022-11-20T07:59:16;150.50;;;42.03;;
43678;SDS011;29279;50.858;4.392;2022-11-20T08:01:42;147.80;;;42.00;;
43678;SDS011;29279;50.858;4.392;2022-11-20T08:04:08;146.25;;;43.30;;
43678;SDS011;29279;50.858;4.392;2022-11-20T08:06:34;163.82;;;44.80;;
43678;SDS011;29279;50.858;4.392;2022-11-20T08:09:00;151.95;;;43.72;;
43678;SDS011;29279;50.858;4.392;2022-11-20T08:11:26;164.25;;;43.65;;
43678;SDS011;29279;50.858;4.392;2022-11-20T08:14:10;147.40;;;41.90;;
43678;SDS011;29279;50.858;4.392;2022-11-20T08:16:39;157.35;;;41.17;;
43678;SDS011;29279;50.858;4.392;2022-11-20T08:19:06;140.55;;;41.35;;
43678;SDS011;29279;50.858;4.392;2022-11-20T08:21:32;148.68;;;43.10;;
43678;SDS011;29279;50.858;4.392;2022-11-20T08:23:58;128.38;;;40.95;;
43678;SDS011;29279;50.858;4.392;2022-11-20T08:26:24;122.57;;;39.88;;
43678;SDS011;29279;50.858;4.392;2022-11-20T08:28:55;138.68;;;40.17;;
43678;SDS011;29279;50.858;4.392;2022-11-20T08:31:22;123.75;;;39.47;;
43678;SDS011;29279;50.858;4.392;2022-11-20T08:33:49;141.25;;;39.95;;
43678;SDS011;29279;50.858;4.392;2022-11-20T08:36:15;145.40;;;41.70;;
43678;SDS011;29279;50.858;4.392;2022-11-20T08:38:41;120.47;;;38.92;;
43678;SDS011;29279;50.858;4.392;2022-11-20T08:41:07;150.15;;;41.97;;
43678;SDS011;29279;50.858;4.392;2022-11-20T08:43:52;130.27;;;38.97;;
43678;SDS011;29279;50.858;4.392;2022-11-20T08:46:19;137.85;;;41.25;;
43678;SDS011;29279;50.858;4.392;2022-11-20T08:48:45;133.43;;;39.60;;
43678;SDS011;29279;50.858;4.392;2022-11-20T08:51:11;130.02;;;40.53;;
43678;SDS011;29279;50.858;4.392;2022-11-20T08:53:40;115.25;;;38.65;;
43678;SDS011;29279;50.858;4.392;2022-11-20T08:56:06;115.90;;;37.33;;
43678;SDS011;29279;50.858;4.392;2022-11-20T08:58:32;119.85;;;37.28;;
43678;SDS011;29279;50.858;4.392;2022-11-20T09:00:58;120.40;;;37.58;;
43678;SDS011;29279;50.858;4.392;2022-11-20T09:03:23;100.20;;;35.22;;
43678;SDS011;29279;50.858;4.392;2022-11-20T09:05:56;109.88;;;36.97;;
43678;SDS011;29279;50.858;4.392;2022-11-20T09:08:22;98.10;;;34.15;;
43678;SDS011;29279;50.858;4.392;2022-11-20T09:10:51;101.60;;;36.47;;
43678;SDS011;29279;50.858;4.392;2022-11-20T09:13:20;95.07;;;32.60;;
43678;SDS011;29279;50.858;4.392;2022-11-20T09:15:47;90.53;;;32.40;;
43678;SDS011;29279;50.858;4.392;2022-11-20T09:18:17;94.88;;;33.83;;
43678;SDS011;29279;50.858;4.392;2022-11-20T09:20:43;84.80;;;32.53;;
43678;SDS011;29279;50.858;4.392;2022-11-20T09:23:09;78.63;;;30.83;;
43678;SDS011;29279;50.858;4.392;2022-11-20T09:25:34;82.07;;;31.25;;
43678;SDS011;29279;50.858;4.392;2022-11-20T09:28:00;77.80;;;29.30;;
43678;SDS011;29279;50.858;4.392;2022-11-20T09:30:26;69.72;;;27.75;;
43678;SDS011;29279;50.858;4.392;2022-11-20T09:32:52;64.20;;;29.08;;
43678;SDS011;29279;50.858;4.392;2022-11-20T09:35:18;83.45;;;28.77;;
43678;SDS011;29279;50.858;4.392;2022-11-20T09:37:44;65.72;;;27.48;;
43678;SDS011;29279;50.858;4.392;2022-11-20T09:40:28;66.30;;;27.77;;
43678;SDS011;29279;50.858;4.392;2022-11-20T09:48:33;63.05;;;26.98;;
43678;SDS011;29279;50.858;4.392;2022-11-20T09:53:50;48.58;;;21.35;;
43678;SDS011;29279;50.858;4.392;2022-11-20T09:56:34;55.90;;;25.58;;
43678;SDS011;29279;50.858;4.392;2022-11-20T09:59:05;45.60;;;22.70;;
43678;SDS011;29279;50.858;4.392;2022-11-20T10:01:34;52.80;;;23.40;;
43678;SDS011;29279;50.858;4.392;2022-11-20T10:04:02;50.97;;;21.63;;
43678;SDS011;29279;50.858;4.392;2022-11-20T10:06:44;44.72;;;21.85;;
43678;SDS011;29279;50.858;4.392;2022-11-20T10:20:24;27.15;;;14.18;;
43678;SDS011;29279;50.858;4.392;2022-11-20T10:25:42;29.70;;;13.18;;
43678;SDS011;29279;50.858;4.392;2022-11-20T10:28:19;32.75;;;12.95;;
43678;SDS011;29279;50.858;4.392;2022-11-20T10:31:06;27.60;;;12.73;;
43678;SDS011;29279;50.858;4.392;2022-11-20T10:33:36;23.00;;;11.20;;
43678;SDS011;29279;50.858;4.392;2022-11-20T10:38:55;20.58;;;11.00;;
43678;SDS011;29279;50.858;4.392;2022-11-20T10:41:28;25.27;;;10.35;;
43678;SDS011;29279;50.858;4.392;2022-11-20T10:44:02;26.25;;;10.20;;
43678;SDS011;29279;50.858;4.392;2022-11-20T10:46:38;31.40;;;10.57;;
43678;SDS011;29279;50.858;4.392;2022-11-20T10:49:15;19.65;;;8.05;;
43678;SDS011;29279;50.858;4.392;2022-11-20T10:54:24;15.85;;;7.35;;
43678;SDS011;29279;50.858;4.392;2022-11-20T10:56:53;16.08;;;7.45;;
43678;SDS011;29279;50.858;4.392;2022-11-20T11:02:33;15.40;;;6.68;;
43678;SDS011;29279;50.858;4.392;2022-11-20T11:05:12;17.42;;;6.40;;
43678;SDS011;29279;50.858;4.392;2022-11-20T11:07:42;17.92;;;6.72;;
43678;SDS011;29279;50.858;4.392;2022-11-20T11:10:17;18.05;;;5.60;;
43678;SDS011;29279;50.858;4.392;2022-11-20T11:12:46;14.60;;;4.90;;
43678;SDS011;29279;50.858;4.392;2022-11-20T11:15:58;14.65;;;5.05;;
43678;SDS011;29279;50.858;4.392;2022-11-20T11:18:01;13.07;;;5.20;;
43678;SDS011;29279;50.858;4.392;2022-11-20T11:20:27;18.50;;;5.50;;
43678;SDS011;29279;50.858;4.392;2022-11-20T11:22:56;15.52;;;4.20;;
43678;SDS011;29279;50.858;4.392;2022-11-20T11:27:59;14.55;;;3.83;;
43678;SDS011;29279;50.858;4.392;2022-11-20T11:30:27;13.48;;;3.92;;
43678;SDS011;29279;50.858;4.392;2022-11-20T11:33:05;11.98;;;4.00;;
43678;SDS011;29279;50.858;4.392;2022-11-20T11:35:38;13.85;;;4.20;;
43678;SDS011;29279;50.858;4.392;2022-11-20T11:38:14;10.55;;;3.92;;
43678;SDS011;29279;50.858;4.392;2022-11-20T11:40:44;12.50;;;3.92;;
43678;SDS011;29279;50.858;4.392;2022-11-20T11:43:18;11.05;;;4.63;;
43678;SDS011;29279;50.858;4.392;2022-11-20T11:46:09;10.45;;;3.83;;
43678;SDS011;29279;50.858;4.392;2022-11-20T11:48:56;10.15;;;4.32;;
43678;SDS011;29279;50.858;4.392;2022-11-20T11:51:22;12.68;;;4.00;;
43678;SDS011;29279;50.858;4.392;2022-11-20T11:53:54;9.75;;;4.32;;
43678;SDS011;29279;50.858;4.392;2022-11-20T11:56:23;8.25;;;3.72;;
43678;SDS011;29279;50.858;4.392;2022-11-20T11:58:52;18.45;;;4.65;;
43678;SDS011;29279;50.858;4.392;2022-11-20T12:04:18;15.50;;;3.72;;
43678;SDS011;29279;50.858;4.392;2022-11-20T12:07:01;18.58;;;3.85;;
43678;SDS011;29279;50.858;4.392;2022-11-20T12:09:37;13.30;;;4.18;;
43678;SDS011;29279;50.858;4.392;2022-11-20T12:12:20;14.55;;;4.15;;
43678;SDS011;29279;50.858;4.392;2022-11-20T12:14:56;15.88;;;4.50;;
43678;SDS011;29279;50.858;4.392;2022-11-20T12:17:23;14.75;;;3.67;;
43678;SDS011;29279;50.858;4.392;2022-11-20T12:19:49;17.67;;;3.67;;
43678;SDS011;29279;50.858;4.392;2022-11-20T12:22:28;15.15;;;4.40;;
43678;SDS011;29279;50.858;4.392;2022-11-20T12:25:30;12.52;;;3.50;;
43678;SDS011;29279;50.858;4.392;2022-11-20T12:30:45;7.85;;;3.45;;
43678;SDS011;29279;50.858;4.392;2022-11-20T12:42:20;12.57;;;3.50;;
43678;SDS011;29279;50.858;4.392;2022-11-20T12:50:31;13.05;;;3.88;;
43678;SDS011;29279;50.858;4.392;2022-11-20T12:56:08;12.43;;;4.15;;
43678;SDS011;29279;50.858;4.392;2022-11-20T13:04:18;9.57;;;3.20;;
43678;SDS011;29279;50.858;4.392;2022-11-20T13:07:11;12.68;;;4.43;;
43678;SDS011;29279;50.858;4.392;2022-11-20T13:09:43;16.20;;;4.05;;
43678;SDS011;29279;50.858;4.392;2022-11-20T13:15:02;13.48;;;3.60;;
43678;SDS011;29279;50.858;4.392;2022-11-20T13:18:03;11.85;;;3.97;;
43678;SDS011;29279;50.858;4.392;2022-11-20T13:20:33;14.05;;;4.78;;
43678;SDS011;29279;50.858;4.392;2022-11-20T13:23:00;14.32;;;4.20;;
43678;SDS011;29279;50.858;4.392;2022-11-20T13:27:55;11.95;;;4.00;;
43678;SDS011;29279;50.858;4.392;2022-11-20T13:30:23;22.70;;;6.03;;
43678;SDS011;29279;50.858;4.392;2022-11-20T13:32:54;12.57;;;4.28;;
43678;SDS011;29279;50.858;4.392;2022-11-20T13:36:01;12.63;;;4.72;;
43678;SDS011;29279;50.858;4.392;2022-11-20T13:38:48;9.98;;;4.78;;
43678;SDS011;29279;50.858;4.392;2022-11-20T13:41:35;8.80;;;4.63;;
43678;SDS011;29279;50.858;4.392;2022-11-20T13:44:10;12.57;;;4.75;;
43678;SDS011;29279;50.858;4.392;2022-11-20T13:46:41;12.73;;;4.45;;
43678;SDS011;29279;50.858;4.392;2022-11-20T13:49:10;6.22;;;3.33;;
43678;SDS011;29279;50.858;4.392;2022-11-20T13:54:59;10.05;;;3.85;;
43678;SDS011;29279;50.858;4.392;2022-11-20T14:03:20;9.57;;;3.38;;
43678;SDS011;29279;50.858;4.392;2022-11-20T14:05:56;7.22;;;2.47;;
43678;SDS011;29279;50.858;4.392;2022-11-20T14:08:41;16.98;;;3.40;;
43678;SDS011;29279;50.858;4.392;2022-11-20T14:11:21;9.82;;;3.15;;
43678;SDS011;29279;50.858;4.392;2022-11-20T14:14:00;7.88;;;2.92;;
43678;SDS011;29279;50.858;4.392;2022-11-20T14:16:29;4.95;;;2.63;;
43678;SDS011;29279;50.858;4.392;2022-11-20T14:18:57;6.97;;;2.17;;
43678;SDS011;29279;50.858;4.392;2022-11-20T14:21:33;7.38;;;2.70;;
43678;SDS011;29279;50.858;4.392;2022-11-20T14:24:05;9.57;;;3.47;;
43678;SDS011;29279;50.858;4.392;2022-11-20T14:26:35;7.47;;;3.05;;
43678;SDS011;29279;50.858;4.392;2022-11-20T14:29:11;5.88;;;3.13;;
43678;SDS011;29279;50.858;4.392;2022-11-20T14:31:41;5.03;;;2.85;;
43678;SDS011;29279;50.858;4.392;2022-11-20T14:34:27;8.57;;;3.00;;
43678;SDS011;29279;50.858;4.392;2022-11-20T14:37:02;8.32;;;3.38;;
43678;SDS011;29279;50.858;4.392;2022-11-20T14:42:18;10.30;;;4.57;;
43678;SDS011;29279;50.858;4.392;2022-11-20T14:44:45;8.95;;;4.30;;
43678;SDS011;29279;50.858;4.392;2022-11-20T14:47:15;7.00;;;3.83;;
43678;SDS011;29279;50.858;4.392;2022-11-20T14:49:46;9.48;;;3.53;;
43678;SDS011;29279;50.858;4.392;2022-11-20T14:52:15;8.07;;;3.90;;
43678;SDS011;29279;50.858;4.392;2022-11-20T14:54:50;6.22;;;3.58;;
43678;SDS011;29279;50.858;4.392;2022-11-20T14:59:47;5.72;;;3.53;;
43678;SDS011;29279;50.858;4.392;2022-11-20T15:02:13;7.78;;;3.70;;
43678;SDS011;29279;50.858;4.392;2022-11-20T15:07:10;6.75;;;3.47;;
43678;SDS011;29279;50.858;4.392;2022-11-20T15:09:36;10.02;;;3.30;;
43678;SDS011;29279;50.858;4.392;2022-11-20T15:12:02;7.22;;;2.83;;
43678;SDS011;29279;50.858;4.392;2022-11-20T15:14:28;6.80;;;2.88;;
43678;SDS011;29279;50.858;4.392;2022-11-20T15:16:57;6.22;;;3.05;;
43678;SDS011;29279;50.858;4.392;2022-11-20T15:19:25;7.05;;;3.35;;
43678;SDS011;29279;50.858;4.392;2022-11-20T15:21:51;6.20;;;3.33;;
43678;SDS011;29279;50.858;4.392;2022-11-20T15:24:17;7.60;;;3.00;;
43678;SDS011;29279;50.858;4.392;2022-11-20T15:26:43;6.38;;;2.95;;
43678;SDS011;29279;50.858;4.392;2022-11-20T15:29:10;7.53;;;3.50;;
43678;SDS011;29279;50.858;4.392;2022-11-20T15:31:38;8.15;;;3.40;;
43678;SDS011;29279;50.858;4.392;2022-11-20T15:34:13;8.50;;;3.53;;
43678;SDS011;29279;50.858;4.392;2022-11-20T15:36:40;15.27;;;3.90;;
43678;SDS011;29279;50.858;4.392;2022-11-20T15:39:07;12.35;;;4.47;;
43678;SDS011;29279;50.858;4.392;2022-11-20T15:41:33;9.45;;;3.65;;
43678;SDS011;29279;50.858;4.392;2022-11-20T15:44:00;11.70;;;4.40;;
43678;SDS011;29279;50.858;4.392;2022-11-20T15:46:26;11.77;;;3.88;;
43678;SDS011;29279;50.858;4.392;2022-11-20T15:48:55;13.40;;;4.55;;
43678;SDS011;29279;50.858;4.392;2022-11-20T15:51:33;12.35;;;3.55;;
43678;SDS011;29279;50.858;4.392;2022-11-20T15:54:00;12.40;;;4.43;;
43678;SDS011;29279;50.858;4.392;2022-11-20T15:56:34;11.35;;;4.07;;
43678;SDS011;29279;50.858;4.392;2022-11-20T15:59:00;19.13;;;4.07;;
43678;SDS011;29279;50.858;4.392;2022-11-20T16:01:25;12.95;;;4.50;;
43678;SDS011;29279;50.858;4.392;2022-11-20T16:03:51;17.27;;;4.50;;
43678;SDS011;29279;50.858;4.392;2022-11-20T16:06:17;13.38;;;3.90;;
43678;SDS011;29279;50.858;4.392;2022-11-20T16:08:42;18.05;;;4.18;;